Time;durP1;ratioP1;P1;durP2;ratioP2;P2;SDS_P1;SDS_P2;PMS_P1;PMS_P2;Temp;Humidity;BMP_temperature;BMP_pressure;BME280_temperature;BME280_humidity;BME280_pressure;Samples;Min_cycle;Max_cycle;Signal;HPM_P1;HPM_P2
2023/12/30 00:02:04;;;;;;;0.40;0.40;;;;;;;3.88;100.00;98410.56;5066519;28;20031;-65
2023/12/30 00:04:30;;;;;;;0.50;0.50;;;;;;;3.87;100.00;98417.41;5066360;28;20020;-65
2023/12/30 00:06:55;;;;;;;0.50;0.50;;;;;;;3.84;100.00;98417.44;5066209;28;20056;-65
2023/12/30 00:09:21;;;;;;;0.45;0.45;;;;;;;3.79;100.00;98414.06;5065931;28;20017;-65
2023/12/30 00:11:46;;;;;;;0.50;0.50;;;;;;;3.81;100.00;98417.47;5066391;28;20025;-68
2023/12/30 00:14:12;;;;;;;0.40;0.40;;;;;;;3.64;100.00;98416.00;5066208;28;20385;-68
2023/12/30 00:16:39;;;;;;;0.40;0.40;;;;;;;3.45;100.00;98403.38;5066251;28;20021;-67
2023/12/30 00:19:05;;;;;;;0.50;0.50;;;;;;;3.37;100.00;98406.91;5065802;28;20029;-66
2023/12/30 00:21:30;;;;;;;0.50;0.50;;;;;;;3.29;100.00;98410.38;5066207;28;20024;-69
2023/12/30 00:23:56;;;;;;;0.40;0.40;;;;;;;3.24;100.00;98409.59;5065845;28;20024;-69
2023/12/30 00:26:23;;;;;;;0.40;0.40;;;;;;;3.26;100.00;98410.41;5066081;28;20025;-68
2023/12/30 00:28:52;;;;;;;0.50;0.50;;;;;;;3.31;100.00;98423.19;5065534;28;20028;-68
2023/12/30 00:31:35;;;;;;;0.50;0.50;;;;;;;3.36;100.00;98418.88;5066318;28;20032;-67
2023/12/30 00:34:01;;;;;;;0.45;0.45;;;;;;;3.41;100.00;98418.81;5065916;28;20065;-67
2023/12/30 00:36:27;;;;;;;0.40;0.40;;;;;;;3.44;100.00;98432.47;5065870;28;20104;-68
2023/12/30 00:38:54;;;;;;;0.43;0.43;;;;;;;3.43;100.00;98423.06;5065605;28;20025;-68
2023/12/30 00:41:23;;;;;;;0.40;0.40;;;;;;;3.50;100.00;98430.69;5065866;28;20021;-68
2023/12/30 00:43:49;;;;;;;0.40;0.40;;;;;;;3.57;100.00;98430.59;5065512;28;20025;-68
2023/12/30 00:46:14;;;;;;;0.50;0.50;;;;;;;3.57;100.00;98424.63;5065666;28;20027;-67
2023/12/30 00:48:40;;;;;;;0.40;0.40;;;;;;;3.61;100.00;98428.00;5047419;28;20024;-68
2023/12/30 00:51:05;;;;;;;0.50;0.50;;;;;;;3.63;100.00;98441.63;5065577;28;20359;-68
2023/12/30 00:53:30;;;;;;;0.47;0.47;;;;;;;3.69;100.00;98449.28;5065582;28;20539;-67
2023/12/30 00:55:56;;;;;;;0.40;0.40;;;;;;;3.69;100.00;98452.69;5065441;28;20017;-68
2023/12/30 00:58:22;;;;;;;0.40;0.40;;;;;;;3.68;100.00;98448.44;5065303;28;20021;-68
2023/12/30 01:00:49;;;;;;;0.40;0.40;;;;;;;3.55;100.00;98437.47;5065352;28;20036;-67
2023/12/30 01:03:14;;;;;;;0.40;0.40;;;;;;;3.47;100.00;98444.38;5065322;28;20031;-67
2023/12/30 01:05:40;;;;;;;0.50;0.50;;;;;;;3.32;100.00;98450.56;5065234;28;20108;-67
2023/12/30 01:08:05;;;;;;;0.40;0.40;;;;;;;3.24;100.00;98465.16;5065068;28;20021;-67
2023/12/30 01:10:31;;;;;;;0.43;0.43;;;;;;;3.11;100.00;98457.59;5065303;28;20073;-67
2023/12/30 01:12:56;;;;;;;0.40;0.40;;;;;;;3.09;100.00;98474.69;5065118;28;20090;-67
2023/12/30 01:15:21;;;;;;;0.50;0.50;;;;;;;3.06;100.00;98482.41;5047001;28;20021;-65
2023/12/30 01:17:47;;;;;;;0.45;0.45;;;;;;;3.00;100.00;98475.66;5065112;28;20024;-66
2023/12/30 01:20:12;;;;;;;0.40;0.40;;;;;;;2.97;100.00;98471.38;5064410;28;20032;-66
2023/12/30 01:22:37;;;;;;;0.50;0.50;;;;;;;2.93;100.00;98467.16;5064981;28;20078;-66
2023/12/30 01:25:03;;;;;;;0.40;0.40;;;;;;;2.97;100.00;98479.06;5047343;28;20025;-66
2023/12/30 01:27:28;;;;;;;0.40;0.40;;;;;;;3.00;100.00;98480.78;5064884;28;20057;-66
2023/12/30 01:29:54;;;;;;;0.40;0.40;;;;;;;2.99;100.00;98473.91;5046911;28;20040;-67
2023/12/30 01:32:19;;;;;;;0.50;0.50;;;;;;;3.00;100.00;98467.97;5064944;28;20534;-66
2023/12/30 01:34:44;;;;;;;0.40;0.40;;;;;;;3.06;100.00;98482.41;5064759;28;20025;-67
2023/12/30 01:37:11;;;;;;;0.40;0.40;;;;;;;3.13;100.00;98496.03;5065062;28;20049;-67
2023/12/30 01:39:36;;;;;;;0.40;0.40;;;;;;;3.17;100.00;98498.56;5064829;28;20083;-67
2023/12/30 01:42:02;;;;;;;0.50;0.50;;;;;;;3.19;100.00;98501.97;5046862;28;20028;-66
2023/12/30 01:44:27;;;;;;;0.40;0.40;;;;;;;3.19;100.00;98501.13;5064905;28;20033;-67
2023/12/30 01:46:53;;;;;;;0.50;0.50;;;;;;;3.25;100.00;98507.88;5064777;28;20021;-67
2023/12/30 01:49:18;;;;;;;0.43;0.43;;;;;;;3.28;100.00;98497.59;5064803;28;20031;-67
2023/12/30 01:51:46;;;;;;;0.47;0.47;;;;;;;3.32;100.00;98497.56;5065028;28;20035;-68
2023/12/30 01:54:11;;;;;;;0.50;0.50;;;;;;;3.32;100.00;98491.59;5064566;28;20035;-67
2023/12/30 01:56:37;;;;;;;0.40;0.40;;;;;;;3.35;100.00;98500.09;5064732;28;20024;-67
2023/12/30 01:59:03;;;;;;;0.50;0.50;;;;;;;3.34;100.00;98508.66;5064421;28;20090;-67
2023/12/30 02:01:28;;;;;;;0.40;0.40;;;;;;;3.35;100.00;98501.81;5064655;28;20021;-67
2023/12/30 02:03:55;;;;;;;0.50;0.50;;;;;;;3.35;100.00;98512.09;5046545;28;20454;-67
2023/12/30 02:06:21;;;;;;;0.47;0.47;;;;;;;3.38;100.00;98513.75;5046627;28;20123;-66
2023/12/30 02:08:47;;;;;;;0.40;0.40;;;;;;;3.37;100.00;98515.47;5064301;28;20059;-67
2023/12/30 02:11:14;;;;;;;0.50;0.50;;;;;;;3.36;100.00;98511.22;5064598;28;20032;-67
2023/12/30 02:13:43;;;;;;;0.40;0.40;;;;;;;3.42;100.00;98518.84;5064583;28;20029;-67
2023/12/30 02:16:08;;;;;;;0.40;0.40;;;;;;;3.42;100.00;98513.72;5064404;28;20099;-67
2023/12/30 02:18:33;;;;;;;0.50;0.50;;;;;;;3.51;100.00;98520.47;5064343;28;20021;-67
2023/12/30 02:20:59;;;;;;;0.40;0.40;;;;;;;3.52;100.00;98505.91;5064504;28;20029;-67
2023/12/30 02:23:24;;;;;;;0.50;0.50;;;;;;;3.54;100.00;98504.19;5064400;28;20023;-67
2023/12/30 02:25:50;;;;;;;0.50;0.50;;;;;;;3.57;100.00;98501.59;5064445;28;20025;-67
2023/12/30 02:28:16;;;;;;;0.40;0.40;;;;;;;3.65;100.00;98510.06;5064392;28;20033;-66
2023/12/30 02:30:41;;;;;;;0.50;0.50;;;;;;;3.67;100.00;98526.31;5064190;28;20063;-66
2023/12/30 02:33:07;;;;;;;0.50;0.50;;;;;;;3.65;100.00;98529.75;5068170;28;20064;-66
2023/12/30 02:35:32;;;;;;;0.50;0.50;;;;;;;3.58;100.00;98537.50;5068206;28;20025;-66
2023/12/30 02:37:57;;;;;;;0.43;0.43;;;;;;;3.54;100.00;98542.69;5050145;28;20028;-66
2023/12/30 02:40:23;;;;;;;0.47;0.47;;;;;;;3.47;100.00;98545.31;5050059;28;20045;-65
2023/12/30 02:42:48;;;;;;;0.50;0.50;;;;;;;3.29;100.00;98536.06;5068102;28;20070;-65
2023/12/30 02:45:14;;;;;;;0.40;0.40;;;;;;;3.17;100.00;98529.34;5067869;28;20116;-65
2023/12/30 02:47:40;;;;;;;0.50;0.50;;;;;;;3.04;100.00;98540.53;5067903;28;20029;-65
2023/12/30 02:50:06;;;;;;;0.40;0.40;;;;;;;2.91;100.00;98538.06;5067763;28;20025;-65
2023/12/30 02:52:31;;;;;;;0.40;0.40;;;;;;;2.85;100.00;98541.53;5068124;28;20116;-65
2023/12/30 02:54:56;;;;;;;0.50;0.50;;;;;;;2.77;100.00;98534.75;5067757;28;20030;-65
2023/12/30 02:57:23;;;;;;;0.40;0.40;;;;;;;2.70;100.00;98541.66;5049889;28;20024;-65
2023/12/30 02:59:48;;;;;;;0.50;0.50;;;;;;;2.54;100.00;98530.66;5067703;28;20075;-65
2023/12/30 03:02:14;;;;;;;0.40;0.40;;;;;;;2.62;100.00;98541.69;5067691;28;20029;-64
2023/12/30 03:04:39;;;;;;;0.45;0.45;;;;;;;2.56;100.00;98536.59;5067384;28;20020;-64
2023/12/30 03:07:05;;;;;;;0.40;0.40;;;;;;;2.56;100.00;98537.47;5067625;28;20032;-65
2023/12/30 03:09:30;;;;;;;0.50;0.50;;;;;;;2.58;100.00;98545.13;5067364;28;20083;-64
2023/12/30 03:11:55;;;;;;;0.50;0.50;;;;;;;2.58;100.00;98540.88;5067599;28;20048;-65
2023/12/30 03:14:21;;;;;;;0.50;0.50;;;;;;;2.60;100.00;98538.28;5067181;28;20054;-65
2023/12/30 03:16:46;;;;;;;0.40;0.40;;;;;;;2.66;100.00;98547.66;5067465;28;20024;-64
2023/12/30 03:19:11;;;;;;;0.50;0.50;;;;;;;2.71;100.00;98548.47;5066876;28;20362;-65
2023/12/30 03:21:37;;;;;;;0.50;0.50;;;;;;;2.70;100.00;98545.06;5067051;28;20025;-65
2023/12/30 03:24:02;;;;;;;0.40;0.40;;;;;;;2.79;100.00;98556.09;5049247;28;20178;-64
2023/12/30 03:26:28;;;;;;;0.50;0.50;;;;;;;2.85;100.00;98563.75;5067333;28;20041;-65
2023/12/30 03:28:53;;;;;;;0.50;0.50;;;;;;;2.87;100.00;98556.06;5066883;28;20461;-65
2023/12/30 03:31:23;;;;;;;0.43;0.43;;;;;;;2.93;100.00;98564.56;5067135;28;20095;-65
2023/12/30 03:33:48;;;;;;;0.50;0.50;;;;;;;3.03;100.00;98562.78;5067323;28;20025;-65
2023/12/30 03:36:13;;;;;;;0.50;0.50;;;;;;;3.10;100.00;98566.13;5067065;28;20028;-65
2023/12/30 03:38:39;;;;;;;0.50;0.50;;;;;;;3.11;100.00;98557.59;5066976;28;20025;-65
2023/12/30 03:41:04;;;;;;;0.50;0.50;;;;;;;3.20;100.00;98561.78;5066822;28;20032;-65
2023/12/30 03:43:29;;;;;;;0.45;0.45;;;;;;;3.25;100.00;98562.59;5066424;28;20052;-65
2023/12/30 03:45:54;;;;;;;0.50;0.50;;;;;;;3.28;100.00;98564.28;5066789;28;20024;-65
2023/12/30 03:48:20;;;;;;;0.50;0.50;;;;;;;3.32;100.00;98579.63;5048682;28;20397;-64
2023/12/30 03:50:45;;;;;;;0.50;0.50;;;;;;;3.33;100.00;98572.81;5048929;28;20036;-65
2023/12/30 03:53:10;;;;;;;0.50;0.50;;;;;;;3.37;100.00;98584.72;5066582;28;20378;-65
2023/12/30 03:55:36;;;;;;;0.50;0.50;;;;;;;3.38;100.00;98583.03;5066772;28;20077;-65
2023/12/30 03:58:02;;;;;;;0.50;0.50;;;;;;;3.37;100.00;98577.03;5066660;28;20021;-65
2023/12/30 04:00:27;;;;;;;0.43;0.43;;;;;;;3.37;100.00;98577.03;5066648;28;20024;-65
2023/12/30 04:02:53;;;;;;;0.50;0.50;;;;;;;3.40;100.00;98584.72;5066768;28;20074;-65
2023/12/30 04:05:18;;;;;;;0.50;0.50;;;;;;;3.42;100.00;98590.66;5066633;28;20025;-65
2023/12/30 04:07:43;;;;;;;0.50;0.50;;;;;;;3.42;100.00;98590.66;5048213;28;20504;-65
2023/12/30 04:10:09;;;;;;;0.40;0.40;;;;;;;3.43;100.00;98589.84;5066172;28;20047;-65
2023/12/30 04:12:35;;;;;;;0.50;0.50;;;;;;;3.46;100.00;98591.50;5066503;28;20025;-65
2023/12/30 04:15:01;;;;;;;0.50;0.50;;;;;;;3.42;100.00;98585.53;5066142;28;20040;-64
2023/12/30 04:17:26;;;;;;;0.50;0.50;;;;;;;3.49;100.00;98595.75;5066299;28;20021;-64
2023/12/30 04:19:51;;;;;;;0.40;0.40;;;;;;;3.49;100.00;98595.75;5066168;28;20029;-64
2023/12/30 04:22:17;;;;;;;0.50;0.50;;;;;;;3.50;100.00;98607.72;5066315;28;20067;-64
2023/12/30 04:24:42;;;;;;;0.50;0.50;;;;;;;3.50;100.00;98607.72;5066132;28;20099;-65
2023/12/30 04:27:07;;;;;;;0.50;0.50;;;;;;;3.50;100.00;98595.72;5066079;28;20028;-64
2023/12/30 04:29:33;;;;;;;0.50;0.50;;;;;;;3.55;100.00;98604.25;5065996;28;20108;-64
2023/12/30 04:31:58;;;;;;;0.50;0.50;;;;;;;3.56;100.00;98603.38;5066193;28;20048;-65
2023/12/30 04:34:23;;;;;;;0.50;0.50;;;;;;;3.58;100.00;98604.22;5065874;28;20115;-65
2023/12/30 04:36:49;;;;;;;0.50;0.50;;;;;;;3.59;100.00;98608.47;5065853;28;20017;-65
2023/12/30 04:39:14;;;;;;;0.40;0.40;;;;;;;3.61;100.00;98625.59;5065886;28;20203;-64
2023/12/30 04:41:40;;;;;;;0.50;0.50;;;;;;;3.58;100.00;98618.75;5065896;28;20021;-65
2023/12/30 04:44:05;;;;;;;0.50;0.50;;;;;;;3.57;100.00;98620.50;5065768;28;20029;-65
2023/12/30 04:46:31;;;;;;;0.50;0.50;;;;;;;3.59;100.00;98620.47;5065700;28;20021;-64
2023/12/30 04:48:56;;;;;;;0.50;0.50;;;;;;;3.52;100.00;98611.13;5065768;28;20028;-64
2023/12/30 04:51:21;;;;;;;0.50;0.50;;;;;;;3.55;100.00;98617.09;5065756;28;20021;-64
2023/12/30 04:53:47;;;;;;;0.40;0.40;;;;;;;3.53;100.00;98617.97;5065515;28;20550;-63
2023/12/30 04:56:16;;;;;;;0.50;0.50;;;;;;;3.54;100.00;98617.09;5064800;28;20013;-64
2023/12/30 04:58:41;;;;;;;0.40;0.40;;;;;;;3.54;100.00;98622.22;5065501;28;20029;-64
2023/12/30 05:01:08;;;;;;;0.40;0.40;;;;;;;3.57;100.00;98637.59;5065298;28;20028;-64
2023/12/30 05:03:35;;;;;;;0.43;0.43;;;;;;;3.54;100.00;98628.22;5065559;28;20084;-64
2023/12/30 05:06:00;;;;;;;0.50;0.50;;;;;;;3.58;100.00;98639.28;5065394;28;20347;-64
2023/12/30 05:08:25;;;;;;;0.40;0.40;;;;;;;3.57;100.00;98635.88;5065246;28;20253;-64
2023/12/30 05:10:51;;;;;;;0.40;0.40;;;;;;;3.59;100.00;98630.75;5065433;28;20060;-65
2023/12/30 05:13:16;;;;;;;0.50;0.50;;;;;;;3.60;100.00;98645.25;5065275;28;20028;-64
2023/12/30 05:15:42;;;;;;;0.45;0.45;;;;;;;3.61;100.00;98643.56;5065217;28;20025;-65
2023/12/30 05:18:07;;;;;;;0.40;0.40;;;;;;;3.60;100.00;98650.41;5047097;28;20113;-64
2023/12/30 05:20:32;;;;;;;0.50;0.50;;;;;;;3.52;100.00;98631.66;5064964;28;20029;-64
2023/12/30 05:23:01;;;;;;;0.50;0.50;;;;;;;3.49;100.00;98631.66;5065094;28;20021;-64
2023/12/30 05:25:26;;;;;;;0.40;0.40;;;;;;;3.63;100.00;98664.91;5065267;28;20025;-64
2023/12/30 05:27:51;;;;;;;0.50;0.50;;;;;;;3.61;100.00;98662.34;5065059;28;20032;-64
2023/12/30 05:30:17;;;;;;;0.40;0.40;;;;;;;3.58;100.00;98659.81;5064926;28;20049;-64
2023/12/30 05:32:42;;;;;;;0.47;0.47;;;;;;;3.58;100.00;98662.38;5065090;28;20588;-64
2023/12/30 05:35:08;;;;;;;0.50;0.50;;;;;;;3.58;100.00;98672.66;5065101;28;20040;-64
2023/12/30 05:37:33;;;;;;;0.40;0.40;;;;;;;3.54;100.00;98671.84;5065021;28;20470;-65
2023/12/30 05:39:59;;;;;;;0.50;0.50;;;;;;;3.53;100.00;98674.41;5064907;28;20405;-65
2023/12/30 05:42:24;;;;;;;0.50;0.50;;;;;;;3.54;100.00;98676.09;5065121;28;20017;-65
2023/12/30 05:44:50;;;;;;;0.50;0.50;;;;;;;3.48;100.00;98674.47;5064870;28;20028;-64
2023/12/30 05:47:15;;;;;;;0.40;0.40;;;;;;;3.47;100.00;98681.28;5064646;28;20032;-65
2023/12/30 05:49:40;;;;;;;0.40;0.40;;;;;;;3.43;100.00;98684.75;5064931;28;20017;-64
2023/12/30 05:52:07;;;;;;;0.47;0.47;;;;;;;3.42;100.00;98684.75;5064835;28;20021;-63
2023/12/30 05:54:33;;;;;;;0.50;0.50;;;;;;;3.41;100.00;98689.03;5064681;28;20029;-64
2023/12/30 05:57:00;;;;;;;0.50;0.50;;;;;;;3.45;100.00;98698.41;5064741;28;20020;-64
2023/12/30 05:59:26;;;;;;;0.50;0.50;;;;;;;3.46;100.00;98697.56;5046549;28;20023;-64
2023/12/30 06:01:52;;;;;;;0.50;0.50;;;;;;;3.50;100.00;98698.38;5064817;28;20020;-63
2023/12/30 06:04:17;;;;;;;0.50;0.50;;;;;;;3.46;100.00;98694.13;5064931;28;20124;-64
2023/12/30 06:06:43;;;;;;;0.50;0.50;;;;;;;3.51;100.00;98701.78;5066313;28;20056;-65
2023/12/30 06:09:08;;;;;;;0.50;0.50;;;;;;;3.47;100.00;98696.69;5068571;28;20025;-64
2023/12/30 06:11:34;;;;;;;0.50;0.50;;;;;;;3.46;100.00;98695.00;5068733;28;20521;-64
2023/12/30 06:13:59;;;;;;;0.47;0.47;;;;;;;3.42;100.00;98706.13;5050607;28;20028;-64
2023/12/30 06:16:24;;;;;;;0.50;0.50;;;;;;;3.38;100.00;98703.59;5068530;28;20025;-64
2023/12/30 06:18:50;;;;;;;0.45;0.45;;;;;;;3.39;100.00;98716.41;5068424;28;20047;-65
2023/12/30 06:21:15;;;;;;;0.50;0.50;;;;;;;3.37;100.00;98723.25;5068418;28;20124;-64
2023/12/30 06:23:40;;;;;;;0.40;0.40;;;;;;;3.31;100.00;98713.88;5068501;28;20051;-65
2023/12/30 06:26:06;;;;;;;0.45;0.45;;;;;;;3.40;100.00;98741.22;5068468;28;20071;-65
2023/12/30 06:28:31;;;;;;;0.40;0.40;;;;;;;3.41;100.00;98739.47;5050434;28;20469;-65
2023/12/30 06:30:57;;;;;;;0.40;0.40;;;;;;;3.42;100.00;98736.91;5067907;28;20521;-65
2023/12/30 06:33:23;;;;;;;0.50;0.50;;;;;;;3.31;100.00;98716.47;5050295;28;20025;-65
2023/12/30 06:35:49;;;;;;;0.50;0.50;;;;;;;3.43;100.00;98745.47;5068204;28;20051;-65
2023/12/30 06:38:15;;;;;;;0.40;0.40;;;;;;;3.45;100.00;98744.59;5068133;28;20025;-66
2023/12/30 06:40:45;;;;;;;0.40;0.40;;;;;;;3.50;100.00;98756.56;5068120;28;20024;-66
2023/12/30 06:43:11;;;;;;;0.40;0.40;;;;;;;3.50;100.00;98756.56;5068265;28;20366;-66
2023/12/30 06:45:36;;;;;;;0.50;0.50;;;;;;;3.53;100.00;98757.38;5050019;28;20160;-66
2023/12/30 06:48:03;;;;;;;0.40;0.40;;;;;;;3.53;100.00;98761.66;5068030;28;20473;-66
2023/12/30 06:50:28;;;;;;;0.50;0.50;;;;;;;3.53;100.00;98759.09;5067963;28;20025;-67
2023/12/30 06:52:58;;;;;;;0.40;0.40;;;;;;;3.54;100.00;98759.09;5068006;28;20051;-66
2023/12/30 06:55:24;;;;;;;0.50;0.50;;;;;;;3.57;100.00;98768.47;5049947;28;20499;-67
2023/12/30 06:57:49;;;;;;;0.40;0.40;;;;;;;3.56;100.00;98766.78;5067985;28;20017;-67
2023/12/30 07:00:15;;;;;;;0.47;0.47;;;;;;;3.59;100.00;98774.44;5067729;28;20052;-67
2023/12/30 07:02:41;;;;;;;0.45;0.45;;;;;;;3.62;100.00;98778.69;5067560;28;20020;-67
2023/12/30 07:05:08;;;;;;;0.50;0.50;;;;;;;3.59;100.00;98782.97;5067597;28;20025;-67
2023/12/30 07:07:34;;;;;;;0.40;0.40;;;;;;;3.63;100.00;98782.97;5067516;28;20035;-67
2023/12/30 07:09:59;;;;;;;0.50;0.50;;;;;;;3.63;100.00;98785.53;5067232;28;20108;-67
2023/12/30 07:12:24;;;;;;;0.50;0.50;;;;;;;3.66;100.00;98799.19;5067661;28;20025;-66
2023/12/30 07:14:50;;;;;;;0.50;0.50;;;;;;;3.65;100.00;98802.66;5049483;28;20020;-66
2023/12/30 07:17:16;;;;;;;0.50;0.50;;;;;;;3.59;100.00;98806.09;5049232;28;20013;-67
2023/12/30 07:19:41;;;;;;;0.50;0.50;;;;;;;3.59;100.00;98807.81;5066689;28;20028;-67
2023/12/30 07:22:07;;;;;;;0.50;0.50;;;;;;;3.59;100.00;98813.78;5067522;28;20021;-67
2023/12/30 07:24:32;;;;;;;0.50;0.50;;;;;;;3.55;100.00;98811.25;5049052;28;20021;-67
2023/12/30 07:26:58;;;;;;;0.43;0.43;;;;;;;3.56;100.00;98818.94;5049308;28;20032;-67
2023/12/30 07:29:24;;;;;;;0.50;0.50;;;;;;;3.54;100.00;98830.94;5066833;28;20045;-67
2023/12/30 07:31:49;;;;;;;0.43;0.43;;;;;;;3.56;100.00;98828.38;5067252;28;20461;-67
2023/12/30 07:34:17;;;;;;;0.40;0.40;;;;;;;3.55;100.00;98834.34;5067072;28;20059;-67
2023/12/30 07:36:43;;;;;;;0.45;0.45;;;;;;;3.49;100.00;98835.22;5067195;28;20095;-68
2023/12/30 07:39:08;;;;;;;0.43;0.43;;;;;;;3.52;100.00;98842.06;5066977;28;20107;-67
2023/12/30 07:41:33;;;;;;;0.40;0.40;;;;;;;3.53;100.00;98838.66;5066709;28;20427;-66
2023/12/30 07:43:59;;;;;;;0.50;0.50;;;;;;;3.47;100.00;98836.94;5049156;28;20029;-67
2023/12/30 07:46:25;;;;;;;0.50;0.50;;;;;;;3.42;100.00;98846.41;5066886;28;20028;-67
2023/12/30 07:48:50;;;;;;;0.40;0.40;;;;;;;3.42;100.00;98847.22;5066756;28;20025;-67
2023/12/30 07:51:16;;;;;;;0.50;0.50;;;;;;;3.38;100.00;98855.81;5066761;28;20024;-68
2023/12/30 07:53:42;;;;;;;0.43;0.43;;;;;;;3.35;100.00;98864.34;5066525;28;20052;-67
2023/12/30 07:56:08;;;;;;;0.50;0.50;;;;;;;3.32;100.00;98860.97;5066869;28;20036;-68
2023/12/30 07:58:34;;;;;;;0.50;0.50;;;;;;;3.27;100.00;98848.16;5048507;28;20048;-67
2023/12/30 08:00:59;;;;;;;0.50;0.50;;;;;;;3.42;100.00;98878.00;5066484;28;20021;-68
2023/12/30 08:03:25;;;;;;;0.50;0.50;;;;;;;3.42;100.00;98877.19;5048467;28;20032;-69
2023/12/30 08:05:51;;;;;;;0.40;0.40;;;;;;;3.44;100.00;98881.44;5066376;28;20373;-70
2023/12/30 08:08:16;;;;;;;0.40;0.40;;;;;;;3.45;100.00;98884.88;5048323;28;20025;-69
2023/12/30 08:10:41;;;;;;;0.50;0.50;;;;;;;3.50;100.00;98887.41;5066448;28;20095;-68
2023/12/30 08:13:07;;;;;;;0.50;0.50;;;;;;;3.51;100.00;98894.25;5048443;28;20036;-68
2023/12/30 08:15:32;;;;;;;0.50;0.50;;;;;;;3.44;100.00;98890.84;5066325;28;20025;-69
2023/12/30 08:17:57;;;;;;;0.50;0.50;;;;;;;3.53;100.00;98913.91;5066535;28;20025;-68
2023/12/30 08:20:23;;;;;;;0.50;0.50;;;;;;;3.56;100.00;98910.47;5066186;28;20021;-68
2023/12/30 08:22:50;;;;;;;0.50;0.50;;;;;;;3.57;100.00;98912.19;5066336;28;20047;-69
2023/12/30 08:25:15;;;;;;;0.40;0.40;;;;;;;3.57;100.00;98922.44;5066324;28;20021;-69
2023/12/30 08:27:41;;;;;;;0.50;0.50;;;;;;;3.56;100.00;98924.16;5066152;28;20036;-68
2023/12/30 08:30:06;;;;;;;0.40;0.40;;;;;;;3.56;100.00;98924.16;5065770;28;20133;-69
2023/12/30 08:32:32;;;;;;;0.50;0.50;;;;;;;3.58;100.00;98926.69;5066178;28;20024;-70
2023/12/30 08:34:57;;;;;;;0.40;0.40;;;;;;;3.47;100.00;98914.78;5066173;28;20080;-69
2023/12/30 08:37:23;;;;;;;0.45;0.45;;;;;;;3.57;100.00;98932.72;5066090;28;20500;-69
2023/12/30 08:39:50;;;;;;;0.50;0.50;;;;;;;3.60;100.00;98930.13;5065673;28;20110;-70
2023/12/30 08:42:15;;;;;;;0.50;0.50;;;;;;;3.57;100.00;98920.75;5065868;28;20036;-69
2023/12/30 08:44:43;;;;;;;0.50;0.50;;;;;;;3.62;100.00;98935.25;5065931;28;20020;-69
2023/12/30 08:47:12;;;;;;;0.50;0.50;;;;;;;3.64;100.00;98939.53;5065856;28;20555;-71
2023/12/30 08:49:38;;;;;;;0.50;0.50;;;;;;;3.65;100.00;98943.81;5065727;28;20044;-69
2023/12/30 08:52:04;;;;;;;0.40;0.40;;;;;;;3.67;100.00;98949.78;5065832;28;20084;-69
2023/12/30 08:54:30;;;;;;;0.50;0.50;;;;;;;3.71;100.00;98955.75;5065393;28;20032;-69
2023/12/30 08:56:55;;;;;;;0.50;0.50;;;;;;;3.69;100.00;98945.50;5065448;28;20021;-69
2023/12/30 08:59:22;;;;;;;0.40;0.40;;;;;;;3.76;100.00;98959.16;5065633;28;20021;-69
2023/12/30 09:01:48;;;;;;;0.50;0.50;;;;;;;3.74;100.00;98950.59;5065491;28;20088;-68
2023/12/30 09:04:14;;;;;;;0.50;0.50;;;;;;;3.83;100.00;98965.97;5065747;28;20029;-68
2023/12/30 09:06:39;;;;;;;0.45;0.45;;;;;;;3.83;100.00;98975.41;5065452;28;20025;-68
2023/12/30 09:09:05;;;;;;;0.50;0.50;;;;;;;3.86;100.00;98974.53;5064948;28;20023;-68
2023/12/30 09:11:34;;;;;;;0.50;0.50;;;;;;;3.88;100.00;98983.94;5065141;28;20396;-67
2023/12/30 09:14:00;;;;;;;0.50;0.50;;;;;;;3.88;100.00;98988.22;5046788;28;20438;-66
2023/12/30 09:16:25;;;;;;;0.50;0.50;;;;;;;3.87;100.00;98979.66;5065098;28;20047;-68
2023/12/30 09:18:50;;;;;;;0.40;0.40;;;;;;;3.89;100.00;98985.66;5047309;28;20028;-68
2023/12/30 09:21:16;;;;;;;0.50;0.50;;;;;;;3.83;100.00;98988.25;5064722;28;20492;-68
2023/12/30 09:23:41;;;;;;;0.40;0.40;;;;;;;3.81;100.00;98992.50;5064990;28;20032;-70
2023/12/30 09:26:07;;;;;;;0.45;0.45;;;;;;;3.76;100.00;99000.22;5065138;28;20021;-68
2023/12/30 09:28:33;;;;;;;0.40;0.40;;;;;;;3.71;100.00;99002.81;5047105;28;20035;-69
2023/12/30 09:30:59;;;;;;;0.50;0.50;;;;;;;3.67;100.00;99008.84;5046891;28;20048;-69
2023/12/30 09:33:24;;;;;;;0.50;0.50;;;;;;;3.50;100.00;99001.16;5065121;28;20058;-70
2023/12/30 09:35:54;;;;;;;0.43;0.43;;;;;;;3.51;100.00;99008.00;5064891;28;20416;-70
2023/12/30 09:38:23;;;;;;;0.50;0.50;;;;;;;3.41;100.00;99001.19;5064651;28;20090;-69
2023/12/30 09:40:53;;;;;;;0.50;0.50;;;;;;;3.52;100.00;99019.09;5064401;28;20025;-72
2023/12/30 09:43:26;;;;;;;0.50;0.50;;;;;;;3.53;100.00;99024.25;5064665;28;20029;-70
2023/12/30 09:45:53;;;;;;;0.40;0.40;;;;;;;3.59;100.00;99023.38;5046592;28;20460;-69
2023/12/30 09:48:26;;;;;;;0.50;0.50;;;;;;;3.69;100.00;99035.31;5064806;28;20044;-70
2023/12/30 09:50:56;;;;;;;0.50;0.50;;;;;;;3.77;100.00;99037.03;5064591;28;20028;-68
2023/12/30 09:53:22;;;;;;;0.50;0.50;;;;;;;3.81;100.00;99036.16;5064408;28;20424;-69
2023/12/30 09:55:49;;;;;;;0.40;0.40;;;;;;;3.87;100.00;99046.41;5046648;28;20032;-70
2023/12/30 09:58:14;;;;;;;0.50;0.50;;;;;;;3.86;100.00;99044.72;5046547;28;20025;-70
2023/12/30 10:00:41;;;;;;;0.40;0.40;;;;;;;3.95;100.00;99054.09;5064542;28;20028;-69
2023/12/30 10:03:07;;;;;;;0.50;0.50;;;;;;;3.97;100.00;99045.53;5064669;28;20028;-68
2023/12/30 10:05:32;;;;;;;0.50;0.50;;;;;;;4.02;100.00;99049.78;5064524;28;20028;-68
2023/12/30 10:07:58;;;;;;;0.50;0.50;;;;;;;4.13;100.00;99060.03;5064604;28;20033;-68
2023/12/30 10:10:43;;;;;;;0.40;0.40;;;;;;;4.17;100.00;99064.31;5064219;28;20051;-69
2023/12/30 10:13:09;;;;;;;0.50;0.50;;;;;;;4.21;100.00;99066.00;5046459;28;20021;-70
2023/12/30 10:15:35;;;;;;;0.40;0.40;;;;;;;4.17;100.00;99057.44;5064351;28;20016;-68
2023/12/30 10:18:00;;;;;;;0.50;0.50;;;;;;;4.22;100.00;99067.69;5064578;28;20105;-67
2023/12/30 10:20:26;;;;;;;0.50;0.50;;;;;;;4.23;100.00;99069.41;5064427;28;20040;-69
2023/12/30 10:22:51;;;;;;;0.50;0.50;;;;;;;4.19;100.00;99063.44;5046640;28;20530;-69
2023/12/30 10:25:16;;;;;;;0.47;0.47;;;;;;;4.12;100.00;99056.59;5064343;28;20106;-69
2023/12/30 10:27:47;;;;;;;0.40;0.40;;;;;;;4.19;100.00;99071.13;5046018;28;20056;-69
2023/12/30 10:30:17;;;;;;;0.50;0.50;;;;;;;4.25;100.00;99077.13;5046078;28;20114;-68
2023/12/30 10:32:43;;;;;;;0.50;0.50;;;;;;;4.28;100.00;99077.09;5064547;28;20024;-69
2023/12/30 10:35:08;;;;;;;0.50;0.50;;;;;;;4.25;100.00;99069.41;5064403;28;20392;-69
2023/12/30 10:37:35;;;;;;;0.50;0.50;;;;;;;4.25;100.00;99080.53;5064329;28;20017;-69
2023/12/30 10:40:02;;;;;;;0.40;0.40;;;;;;;4.22;100.00;99076.25;5064223;28;20025;-70
2023/12/30 10:42:28;;;;;;;0.40;0.40;;;;;;;4.24;100.00;99077.97;5046305;28;20025;-69
2023/12/30 10:44:53;;;;;;;0.40;0.40;;;;;;;4.32;100.00;99081.34;5064471;28;20043;-69
2023/12/30 10:47:21;;;;;;;0.40;0.40;;;;;;;4.40;100.00;99087.31;5064503;28;20025;-73
2023/12/30 10:49:54;;;;;;;0.50;0.50;;;;;;;4.48;100.00;99092.44;5064272;28;20025;-71
2023/12/30 10:52:23;;;;;;;0.40;0.40;;;;;;;4.51;100.00;99087.28;5064405;28;20051;-69
2023/12/30 10:54:58;;;;;;;0.50;0.50;;;;;;;4.57;100.00;99102.66;5067352;28;20027;-69
2023/12/30 10:57:30;;;;;;;0.40;0.40;;;;;;;4.54;100.00;99101.81;5067837;28;20024;-70
2023/12/30 10:59:57;;;;;;;0.40;0.40;;;;;;;4.52;100.00;99100.97;5067901;28;20067;-68
2023/12/30 11:02:23;;;;;;;0.40;0.40;;;;;;;4.56;100.00;99112.94;5067929;28;20054;-67
2023/12/30 11:04:48;;;;;;;0.40;0.40;;;;;;;4.49;100.00;99119.00;5067942;28;20044;-66
2023/12/30 11:07:17;;;;;;;0.40;0.40;;;;;;;4.45;100.00;99131.84;5067753;28;20048;-64
2023/12/30 11:09:43;;;;;;;0.40;0.40;;;;;;;4.29;100.00;99114.78;5067484;28;20095;-66
2023/12/30 11:12:09;;;;;;;0.50;0.50;;;;;;;4.27;100.00;99122.47;5067570;28;20017;-66
2023/12/30 11:14:37;;;;;;;0.47;0.47;;;;;;;4.19;100.00;99117.38;5067567;28;20374;-66
2023/12/30 11:17:03;;;;;;;0.40;0.40;;;;;;;4.11;100.00;99123.38;5067685;28;20025;-66
2023/12/30 11:19:30;;;;;;;0.40;0.40;;;;;;;4.02;100.00;99120.00;5067485;28;20024;-67
2023/12/30 11:22:00;;;;;;;0.40;0.40;;;;;;;3.95;100.00;99113.16;5067502;28;20635;-69
2023/12/30 11:24:26;;;;;;;0.40;0.40;;;;;;;3.89;100.00;99113.16;5067236;28;20021;-69
2023/12/30 11:26:53;;;;;;;0.45;0.45;;;;;;;3.86;100.00;99131.16;5067342;28;20450;-74
2023/12/30 11:29:28;;;;;;;0.50;0.50;;;;;;;3.85;100.00;99130.28;5066715;28;20073;-69